sensor_id;sensor_type;location;lat;lon;timestamp;P1;durP1;ratioP1;P2;durP2;ratioP2
65071;SDS011;51663;52.310;17.016;2023-03-01T00:00:09;223.53;;;78.50;;
65071;SDS011;51663;52.310;17.016;2023-03-01T00:03:33;299.97;;;96.27;;
65071;SDS011;51663;52.310;17.016;2023-03-01T00:06:36;325.73;;;101.10;;
65071;SDS011;51663;52.310;17.016;2023-03-01T00:09:39;281.60;;;93.23;;
65071;SDS011;51663;52.310;17.016;2023-03-01T00:31:35;376.20;;;107.77;;
65071;SDS011;51663;52.310;17.016;2023-03-01T00:34:37;624.60;;;172.07;;
65071;SDS011;51663;52.310;17.016;2023-03-01T00:37:39;355.70;;;108.10;;
65071;SDS011;51663;52.310;17.016;2023-03-01T00:40:43;630.87;;;185.87;;
65071;SDS011;51663;52.310;17.016;2023-03-01T00:43:45;651.57;;;193.50;;
65071;SDS011;51663;52.310;17.016;2023-03-01T00:46:47;523.10;;;148.57;;
65071;SDS011;51663;52.310;17.016;2023-03-01T00:49:49;548.97;;;158.50;;
65071;SDS011;51663;52.310;17.016;2023-03-01T00:52:52;422.70;;;124.63;;
65071;SDS011;51663;52.310;17.016;2023-03-01T00:55:56;371.07;;;114.93;;
65071;SDS011;51663;52.310;17.016;2023-03-01T00:58:59;377.17;;;116.17;;
65071;SDS011;51663;52.310;17.016;2023-03-01T01:02:02;415.20;;;121.07;;
65071;SDS011;51663;52.310;17.016;2023-03-01T01:05:04;382.13;;;116.60;;
65071;SDS011;51663;52.310;17.016;2023-03-01T01:08:07;332.67;;;104.30;;
65071;SDS011;51663;52.310;17.016;2023-03-01T01:11:10;363.30;;;114.03;;
65071;SDS011;51663;52.310;17.016;2023-03-01T01:14:13;304.63;;;98.03;;
65071;SDS011;51663;52.310;17.016;2023-03-01T01:17:16;392.13;;;120.43;;
65071;SDS011;51663;52.310;17.016;2023-03-01T01:20:18;239.27;;;84.27;;
65071;SDS011;51663;52.310;17.016;2023-03-01T01:23:20;289.47;;;94.97;;
65071;SDS011;51663;52.310;17.016;2023-03-01T01:26:23;359.67;;;110.73;;
65071;SDS011;51663;52.310;17.016;2023-03-01T01:29:27;384.17;;;112.77;;
65071;SDS011;51663;52.310;17.016;2023-03-01T01:32:30;399.37;;;121.10;;
65071;SDS011;51663;52.310;17.016;2023-03-01T01:35:32;373.47;;;111.33;;
65071;SDS011;51663;52.310;17.016;2023-03-01T01:38:34;349.90;;;105.97;;
65071;SDS011;51663;52.310;17.016;2023-03-01T01:41:40;288.97;;;92.90;;
65071;SDS011;51663;52.310;17.016;2023-03-01T01:44:46;281.67;;;93.73;;
65071;SDS011;51663;52.310;17.016;2023-03-01T01:47:50;261.57;;;91.07;;
65071;SDS011;51663;52.310;17.016;2023-03-01T01:50:57;296.03;;;97.37;;
65071;SDS011;51663;52.310;17.016;2023-03-01T01:54:02;267.33;;;90.00;;
65071;SDS011;51663;52.310;17.016;2023-03-01T01:57:06;245.87;;;86.50;;
65071;SDS011;51663;52.310;17.016;2023-03-01T02:00:17;261.43;;;88.73;;
65071;SDS011;51663;52.310;17.016;2023-03-01T02:03:25;270.43;;;90.90;;
65071;SDS011;51663;52.310;17.016;2023-03-01T02:07:12;274.63;;;89.93;;
65071;SDS011;51663;52.310;17.016;2023-03-01T02:10:08;437.33;;;126.17;;
65071;SDS011;51663;52.310;17.016;2023-03-01T02:13:11;341.80;;;107.50;;
65071;SDS011;51663;52.310;17.016;2023-03-01T02:16:14;345.77;;;107.73;;
65071;SDS011;51663;52.310;17.016;2023-03-01T02:19:37;373.13;;;114.20;;
65071;SDS011;51663;52.310;17.016;2023-03-01T02:23:20;306.27;;;97.13;;
65071;SDS011;51663;52.310;17.016;2023-03-01T02:29:28;331.80;;;105.57;;
65071;SDS011;51663;52.310;17.016;2023-03-01T02:32:30;310.30;;;98.90;;
65071;SDS011;51663;52.310;17.016;2023-03-01T02:35:34;222.63;;;74.77;;
65071;SDS011;51663;52.310;17.016;2023-03-01T02:38:40;178.80;;;65.87;;
65071;SDS011;51663;52.310;17.016;2023-03-01T02:41:47;155.90;;;57.70;;
65071;SDS011;51663;52.310;17.016;2023-03-01T02:44:53;131.63;;;51.13;;
65071;SDS011;51663;52.310;17.016;2023-03-01T02:47:56;123.87;;;49.13;;
65071;SDS011;51663;52.310;17.016;2023-03-01T02:51:06;125.47;;;48.77;;
65071;SDS011;51663;52.310;17.016;2023-03-01T02:57:30;128.43;;;49.17;;
65071;SDS011;51663;52.310;17.016;2023-03-01T03:00:38;137.37;;;54.97;;
65071;SDS011;51663;52.310;17.016;2023-03-01T03:03:48;137.43;;;52.77;;
65071;SDS011;51663;52.310;17.016;2023-03-01T03:06:50;133.40;;;54.27;;
65071;SDS011;51663;52.310;17.016;2023-03-01T03:09:53;123.40;;;50.27;;
65071;SDS011;51663;52.310;17.016;2023-03-01T03:12:56;119.47;;;48.97;;
65071;SDS011;51663;52.310;17.016;2023-03-01T03:16:00;128.00;;;49.73;;
65071;SDS011;51663;52.310;17.016;2023-03-01T03:19:05;125.90;;;50.77;;
65071;SDS011;51663;52.310;17.016;2023-03-01T03:22:07;141.07;;;54.47;;
65071;SDS011;51663;52.310;17.016;2023-03-01T03:25:10;155.53;;;58.90;;
65071;SDS011;51663;52.310;17.016;2023-03-01T03:28:13;153.37;;;57.73;;
65071;SDS011;51663;52.310;17.016;2023-03-01T03:31:17;134.97;;;53.30;;
65071;SDS011;51663;52.310;17.016;2023-03-01T03:34:19;157.67;;;58.40;;
65071;SDS011;51663;52.310;17.016;2023-03-01T03:37:21;141.10;;;54.27;;
65071;SDS011;51663;52.310;17.016;2023-03-01T03:43:46;123.70;;;50.90;;
65071;SDS011;51663;52.310;17.016;2023-03-01T03:46:48;145.57;;;54.83;;
65071;SDS011;51663;52.310;17.016;2023-03-01T03:49:50;134.33;;;55.87;;
65071;SDS011;51663;52.310;17.016;2023-03-01T03:52:52;137.87;;;53.33;;
65071;SDS011;51663;52.310;17.016;2023-03-01T03:55:54;131.23;;;51.93;;
65071;SDS011;51663;52.310;17.016;2023-03-01T03:58:56;140.40;;;51.70;;
65071;SDS011;51663;52.310;17.016;2023-03-01T04:01:59;142.00;;;55.77;;
65071;SDS011;51663;52.310;17.016;2023-03-01T04:05:01;133.77;;;54.20;;
65071;SDS011;51663;52.310;17.016;2023-03-01T04:08:04;128.93;;;51.90;;
65071;SDS011;51663;52.310;17.016;2023-03-01T04:11:08;131.03;;;52.73;;
65071;SDS011;51663;52.310;17.016;2023-03-01T04:14:29;131.17;;;53.70;;
65071;SDS011;51663;52.310;17.016;2023-03-01T04:17:32;138.77;;;53.63;;
65071;SDS011;51663;52.310;17.016;2023-03-01T04:20:35;140.53;;;53.83;;
65071;SDS011;51663;52.310;17.016;2023-03-01T04:23:37;147.97;;;59.23;;
65071;SDS011;51663;52.310;17.016;2023-03-01T04:26:40;157.10;;;58.40;;
65071;SDS011;51663;52.310;17.016;2023-03-01T04:29:42;162.67;;;64.67;;
65071;SDS011;51663;52.310;17.016;2023-03-01T04:32:44;171.40;;;66.87;;
65071;SDS011;51663;52.310;17.016;2023-03-01T04:35:47;158.07;;;61.77;;
65071;SDS011;51663;52.310;17.016;2023-03-01T04:38:53;164.30;;;62.53;;
65071;SDS011;51663;52.310;17.016;2023-03-01T04:41:55;161.47;;;64.30;;
65071;SDS011;51663;52.310;17.016;2023-03-01T04:44:57;160.73;;;59.03;;
65071;SDS011;51663;52.310;17.016;2023-03-01T04:47:59;252.43;;;94.97;;
65071;SDS011;51663;52.310;17.016;2023-03-01T04:51:02;225.93;;;85.70;;
65071;SDS011;51663;52.310;17.016;2023-03-01T04:54:05;201.90;;;75.63;;
65071;SDS011;51663;52.310;17.016;2023-03-01T04:57:10;198.43;;;72.87;;
65071;SDS011;51663;52.310;17.016;2023-03-01T05:00:13;202.77;;;72.57;;
65071;SDS011;51663;52.310;17.016;2023-03-01T05:03:21;218.47;;;80.03;;
65071;SDS011;51663;52.310;17.016;2023-03-01T05:06:24;228.37;;;91.27;;
65071;SDS011;51663;52.310;17.016;2023-03-01T05:09:26;226.93;;;87.27;;
65071;SDS011;51663;52.310;17.016;2023-03-01T05:12:28;235.80;;;89.43;;
65071;SDS011;51663;52.310;17.016;2023-03-01T05:15:31;248.03;;;96.20;;
65071;SDS011;51663;52.310;17.016;2023-03-01T05:18:33;252.47;;;96.10;;
65071;SDS011;51663;52.310;17.016;2023-03-01T05:21:37;257.00;;;96.37;;
65071;SDS011;51663;52.310;17.016;2023-03-01T05:25:02;219.10;;;83.70;;
65071;SDS011;51663;52.310;17.016;2023-03-01T05:28:06;209.17;;;82.23;;
65071;SDS011;51663;52.310;17.016;2023-03-01T05:31:12;200.10;;;79.40;;
65071;SDS011;51663;52.310;17.016;2023-03-01T05:34:15;212.17;;;82.33;;
65071;SDS011;51663;52.310;17.016;2023-03-01T05:37:16;217.97;;;78.20;;
65071;SDS011;51663;52.310;17.016;2023-03-01T05:40:20;197.00;;;76.23;;
65071;SDS011;51663;52.310;17.016;2023-03-01T05:43:23;178.03;;;69.97;;
65071;SDS011;51663;52.310;17.016;2023-03-01T05:46:32;180.97;;;71.67;;
65071;SDS011;51663;52.310;17.016;2023-03-01T05:49:34;193.13;;;74.73;;
65071;SDS011;51663;52.310;17.016;2023-03-01T05:52:40;217.27;;;76.97;;
65071;SDS011;51663;52.310;17.016;2023-03-01T05:55:43;212.87;;;79.90;;
65071;SDS011;51663;52.310;17.016;2023-03-01T05:58:47;205.17;;;76.73;;
65071;SDS011;51663;52.310;17.016;2023-03-01T06:01:50;184.53;;;67.10;;
65071;SDS011;51663;52.310;17.016;2023-03-01T06:04:53;177.73;;;67.43;;
65071;SDS011;51663;52.310;17.016;2023-03-01T06:08:03;175.97;;;67.43;;
65071;SDS011;51663;52.310;17.016;2023-03-01T06:11:05;174.83;;;65.10;;
65071;SDS011;51663;52.310;17.016;2023-03-01T06:14:09;195.93;;;69.57;;
65071;SDS011;51663;52.310;17.016;2023-03-01T06:17:12;192.27;;;70.83;;
65071;SDS011;51663;52.310;17.016;2023-03-01T06:20:16;175.60;;;65.87;;
65071;SDS011;51663;52.310;17.016;2023-03-01T06:23:21;181.80;;;67.17;;
65071;SDS011;51663;52.310;17.016;2023-03-01T06:26:23;175.47;;;65.43;;
65071;SDS011;51663;52.310;17.016;2023-03-01T06:29:26;218.70;;;75.87;;
65071;SDS011;51663;52.310;17.016;2023-03-01T06:32:29;200.63;;;70.87;;
65071;SDS011;51663;52.310;17.016;2023-03-01T06:35:33;163.37;;;62.67;;
65071;SDS011;51663;52.310;17.016;2023-03-01T06:38:37;151.80;;;57.20;;
65071;SDS011;51663;52.310;17.016;2023-03-01T06:41:42;148.43;;;57.33;;
65071;SDS011;51663;52.310;17.016;2023-03-01T06:44:44;142.50;;;53.70;;
65071;SDS011;51663;52.310;17.016;2023-03-01T06:47:47;123.70;;;53.27;;
65071;SDS011;51663;52.310;17.016;2023-03-01T06:50:52;142.33;;;57.90;;
65071;SDS011;51663;52.310;17.016;2023-03-01T06:53:56;170.00;;;62.87;;
65071;SDS011;51663;52.310;17.016;2023-03-01T06:57:00;161.57;;;64.30;;
65071;SDS011;51663;52.310;17.016;2023-03-01T07:00:04;147.10;;;62.57;;
65071;SDS011;51663;52.310;17.016;2023-03-01T07:03:10;219.53;;;76.63;;
65071;SDS011;51663;52.310;17.016;2023-03-01T07:06:13;234.00;;;83.10;;
65071;SDS011;51663;52.310;17.016;2023-03-01T07:09:15;211.60;;;77.47;;
65071;SDS011;51663;52.310;17.016;2023-03-01T07:12:21;183.20;;;70.30;;
65071;SDS011;51663;52.310;17.016;2023-03-01T07:15:26;185.80;;;68.13;;
65071;SDS011;51663;52.310;17.016;2023-03-01T07:18:29;172.17;;;68.97;;
65071;SDS011;51663;52.310;17.016;2023-03-01T07:21:31;162.77;;;64.17;;
65071;SDS011;51663;52.310;17.016;2023-03-01T07:24:34;140.00;;;58.87;;
65071;SDS011;51663;52.310;17.016;2023-03-01T07:27:36;149.90;;;65.87;;
65071;SDS011;51663;52.310;17.016;2023-03-01T07:30:39;183.23;;;80.67;;
65071;SDS011;51663;52.310;17.016;2023-03-01T07:33:41;231.10;;;98.90;;
65071;SDS011;51663;52.310;17.016;2023-03-01T07:36:46;188.47;;;81.80;;
65071;SDS011;51663;52.310;17.016;2023-03-01T07:39:48;151.30;;;69.37;;
65071;SDS011;51663;52.310;17.016;2023-03-01T07:42:54;210.10;;;97.80;;
65071;SDS011;51663;52.310;17.016;2023-03-01T07:45:58;186.50;;;86.70;;
65071;SDS011;51663;52.310;17.016;2023-03-01T07:49:04;137.23;;;62.43;;
65071;SDS011;51663;52.310;17.016;2023-03-01T07:52:06;116.10;;;55.20;;
65071;SDS011;51663;52.310;17.016;2023-03-01T07:55:15;108.37;;;51.07;;
65071;SDS011;51663;52.310;17.016;2023-03-01T07:58:18;95.33;;;45.60;;
65071;SDS011;51663;52.310;17.016;2023-03-01T08:01:20;101.07;;;45.70;;
65071;SDS011;51663;52.310;17.016;2023-03-01T08:04:23;92.20;;;42.60;;
65071;SDS011;51663;52.310;17.016;2023-03-01T08:07:28;86.10;;;41.00;;
65071;SDS011;51663;52.310;17.016;2023-03-01T08:10:30;90.33;;;42.83;;
65071;SDS011;51663;52.310;17.016;2023-03-01T08:13:33;98.00;;;45.30;;
65071;SDS011;51663;52.310;17.016;2023-03-01T08:16:35;105.73;;;50.17;;
65071;SDS011;51663;52.310;17.016;2023-03-01T08:19:38;97.00;;;45.63;;
65071;SDS011;51663;52.310;17.016;2023-03-01T08:22:40;77.87;;;39.03;;
65071;SDS011;51663;52.310;17.016;2023-03-01T08:25:44;88.00;;;43.57;;
65071;SDS011;51663;52.310;17.016;2023-03-01T08:28:49;82.27;;;39.77;;
65071;SDS011;51663;52.310;17.016;2023-03-01T08:31:52;82.40;;;38.77;;
65071;SDS011;51663;52.310;17.016;2023-03-01T08:34:55;78.93;;;37.67;;
65071;SDS011;51663;52.310;17.016;2023-03-01T08:37:57;73.03;;;36.53;;
65071;SDS011;51663;52.310;17.016;2023-03-01T08:41:00;67.87;;;34.23;;
65071;SDS011;51663;52.310;17.016;2023-03-01T08:44:03;63.70;;;31.37;;
65071;SDS011;51663;52.310;17.016;2023-03-01T08:47:05;54.47;;;29.23;;
65071;SDS011;51663;52.310;17.016;2023-03-01T08:50:08;56.77;;;28.43;;
65071;SDS011;51663;52.310;17.016;2023-03-01T08:53:10;55.13;;;26.93;;
65071;SDS011;51663;52.310;17.016;2023-03-01T08:56:16;54.23;;;28.00;;
65071;SDS011;51663;52.310;17.016;2023-03-01T08:59:21;68.47;;;35.47;;
65071;SDS011;51663;52.310;17.016;2023-03-01T09:02:24;68.47;;;31.93;;
65071;SDS011;51663;52.310;17.016;2023-03-01T09:05:26;60.67;;;31.60;;
65071;SDS011;51663;52.310;17.016;2023-03-01T09:08:28;55.93;;;29.93;;
65071;SDS011;51663;52.310;17.016;2023-03-01T09:11:31;54.87;;;26.67;;
65071;SDS011;51663;52.310;17.016;2023-03-01T09:14:34;49.53;;;24.77;;
65071;SDS011;51663;52.310;17.016;2023-03-01T09:17:38;48.40;;;25.50;;
65071;SDS011;51663;52.310;17.016;2023-03-01T09:20:40;61.93;;;29.67;;
65071;SDS011;51663;52.310;17.016;2023-03-01T09:23:43;57.87;;;27.80;;
65071;SDS011;51663;52.310;17.016;2023-03-01T09:26:51;58.20;;;28.17;;
65071;SDS011;51663;52.310;17.016;2023-03-01T09:29:55;47.50;;;23.83;;
65071;SDS011;51663;52.310;17.016;2023-03-01T09:32:59;37.80;;;20.97;;
65071;SDS011;51663;52.310;17.016;2023-03-01T09:36:03;43.90;;;20.83;;
65071;SDS011;51663;52.310;17.016;2023-03-01T09:39:08;29.93;;;15.80;;
65071;SDS011;51663;52.310;17.016;2023-03-01T09:42:13;25.27;;;14.47;;
65071;SDS011;51663;52.310;17.016;2023-03-01T09:45:26;28.40;;;13.37;;
65071;SDS011;51663;52.310;17.016;2023-03-01T09:55:25;17.13;;;11.43;;
65071;SDS011;51663;52.310;17.016;2023-03-01T09:58:34;21.57;;;12.17;;
65071;SDS011;51663;52.310;17.016;2023-03-01T10:02:11;21.73;;;13.00;;
65071;SDS011;51663;52.310;17.016;2023-03-01T10:05:35;20.10;;;12.27;;
65071;SDS011;51663;52.310;17.016;2023-03-01T10:12:18;22.83;;;12.17;;
65071;SDS011;51663;52.310;17.016;2023-03-01T10:15:35;26.97;;;13.27;;
65071;SDS011;51663;52.310;17.016;2023-03-01T10:18:45;25.80;;;14.20;;
65071;SDS011;51663;52.310;17.016;2023-03-01T10:21:53;27.17;;;15.67;;
65071;SDS011;51663;52.310;17.016;2023-03-01T10:24:57;28.50;;;14.17;;
65071;SDS011;51663;52.310;17.016;2023-03-01T10:31:20;27.63;;;14.93;;
65071;SDS011;51663;52.310;17.016;2023-03-01T10:34:33;24.73;;;13.23;;
65071;SDS011;51663;52.310;17.016;2023-03-01T10:37:38;28.30;;;14.53;;
65071;SDS011;51663;52.310;17.016;2023-03-01T10:41:07;25.30;;;14.10;;
65071;SDS011;51663;52.310;17.016;2023-03-01T10:44:10;43.17;;;19.67;;
65071;SDS011;51663;52.310;17.016;2023-03-01T10:48:02;24.87;;;13.67;;
65071;SDS011;51663;52.310;17.016;2023-03-01T10:51:06;21.30;;;12.93;;
65071;SDS011;51663;52.310;17.016;2023-03-01T10:54:42;24.73;;;13.23;;
65071;SDS011;51663;52.310;17.016;2023-03-01T10:57:38;21.73;;;13.07;;
65071;SDS011;51663;52.310;17.016;2023-03-01T11:04:36;20.27;;;12.33;;
65071;SDS011;51663;52.310;17.016;2023-03-01T11:08:02;26.50;;;13.53;;
65071;SDS011;51663;52.310;17.016;2023-03-01T11:11:25;24.63;;;13.27;;
65071;SDS011;51663;52.310;17.016;2023-03-01T11:14:35;54.87;;;32.27;;
65071;SDS011;51663;52.310;17.016;2023-03-01T11:17:40;25.73;;;13.23;;
65071;SDS011;51663;52.310;17.016;2023-03-01T11:20:55;19.10;;;11.57;;
65071;SDS011;51663;52.310;17.016;2023-03-01T11:24:03;19.23;;;11.30;;
65071;SDS011;51663;52.310;17.016;2023-03-01T11:27:14;20.73;;;11.47;;
65071;SDS011;51663;52.310;17.016;2023-03-01T11:36:54;19.87;;;12.37;;
65071;SDS011;51663;52.310;17.016;2023-03-01T11:40:05;23.97;;;11.47;;
65071;SDS011;51663;52.310;17.016;2023-03-01T11:44:01;17.40;;;11.30;;
65071;SDS011;51663;52.310;17.016;2023-03-01T11:46:44;16.97;;;11.30;;
65071;SDS011;51663;52.310;17.016;2023-03-01T11:56:40;31.13;;;18.93;;
65071;SDS011;51663;52.310;17.016;2023-03-01T12:09:57;18.00;;;10.83;;
65071;SDS011;51663;52.310;17.016;2023-03-01T12:13:23;22.20;;;13.50;;
65071;SDS011;51663;52.310;17.016;2023-03-01T12:30:25;33.27;;;20.20;;
65071;SDS011;51663;52.310;17.016;2023-03-01T12:33:53;38.30;;;21.43;;
65071;SDS011;51663;52.310;17.016;2023-03-01T12:43:56;29.23;;;16.77;;
65071;SDS011;51663;52.310;17.016;2023-03-01T12:50:32;28.30;;;16.20;;
65071;SDS011;51663;52.310;17.016;2023-03-01T12:53:45;32.77;;;17.57;;
65071;SDS011;51663;52.310;17.016;2023-03-01T12:56:50;27.67;;;14.77;;
65071;SDS011;51663;52.310;17.016;2023-03-01T13:00:17;28.23;;;14.93;;
65071;SDS011;51663;52.310;17.016;2023-03-01T13:03:42;20.03;;;13.30;;
65071;SDS011;51663;52.310;17.016;2023-03-01T13:07:01;18.10;;;10.33;;
65071;SDS011;51663;52.310;17.016;2023-03-01T13:10:20;13.00;;;8.23;;
65071;SDS011;51663;52.310;17.016;2023-03-01T13:13:30;19.93;;;10.77;;
65071;SDS011;51663;52.310;17.016;2023-03-01T13:19:46;16.77;;;11.63;;
65071;SDS011;51663;52.310;17.016;2023-03-01T13:23:47;21.47;;;14.83;;
65071;SDS011;51663;52.310;17.016;2023-03-01T13:26:24;15.43;;;9.90;;
65071;SDS011;51663;52.310;17.016;2023-03-01T13:29:27;13.97;;;9.40;;
65071;SDS011;51663;52.310;17.016;2023-03-01T13:35:49;14.20;;;9.77;;
65071;SDS011;51663;52.310;17.016;2023-03-01T13:41:59;13.63;;;8.57;;
65071;SDS011;51663;52.310;17.016;2023-03-01T13:45:02;17.00;;;10.50;;
65071;SDS011;51663;52.310;17.016;2023-03-01T13:51:38;15.80;;;9.13;;
65071;SDS011;51663;52.310;17.016;2023-03-01T13:54:42;14.03;;;8.97;;
65071;SDS011;51663;52.310;17.016;2023-03-01T13:57:45;14.20;;;8.17;;
65071;SDS011;51663;52.310;17.016;2023-03-01T14:01:05;18.10;;;10.57;;
65071;SDS011;51663;52.310;17.016;2023-03-01T14:04:18;17.03;;;10.50;;
65071;SDS011;51663;52.310;17.016;2023-03-01T14:07:24;16.57;;;8.67;;
65071;SDS011;51663;52.310;17.016;2023-03-01T14:10:40;13.40;;;9.60;;
65071;SDS011;51663;52.310;17.016;2023-03-01T14:13:55;14.70;;;8.83;;
65071;SDS011;51663;52.310;17.016;2023-03-01T14:21:01;12.60;;;7.50;;
65071;SDS011;51663;52.310;17.016;2023-03-01T14:24:20;18.30;;;8.67;;
65071;SDS011;51663;52.310;17.016;2023-03-01T14:27:27;12.53;;;8.93;;
65071;SDS011;51663;52.310;17.016;2023-03-01T14:30:50;13.37;;;8.70;;
65071;SDS011;51663;52.310;17.016;2023-03-01T14:33:54;14.30;;;9.70;;
65071;SDS011;51663;52.310;17.016;2023-03-01T14:36:57;13.27;;;9.20;;
65071;SDS011;51663;52.310;17.016;2023-03-01T14:40:23;15.63;;;10.53;;
65071;SDS011;51663;52.310;17.016;2023-03-01T14:43:31;12.07;;;10.03;;
65071;SDS011;51663;52.310;17.016;2023-03-01T14:46:35;12.60;;;8.90;;
65071;SDS011;51663;52.310;17.016;2023-03-01T14:49:40;12.17;;;9.47;;
65071;SDS011;51663;52.310;17.016;2023-03-01T14:52:45;16.50;;;8.80;;
65071;SDS011;51663;52.310;17.016;2023-03-01T14:55:54;14.07;;;10.50;;
65071;SDS011;51663;52.310;17.016;2023-03-01T14:58:58;16.97;;;11.43;;
65071;SDS011;51663;52.310;17.016;2023-03-01T15:02:01;15.73;;;10.73;;
65071;SDS011;51663;52.310;17.016;2023-03-01T15:05:04;12.63;;;9.20;;
65071;SDS011;51663;52.310;17.016;2023-03-01T15:08:19;18.33;;;9.00;;
65071;SDS011;51663;52.310;17.016;2023-03-01T15:11:29;14.47;;;9.23;;
65071;SDS011;51663;52.310;17.016;2023-03-01T15:14:41;15.03;;;8.90;;
65071;SDS011;51663;52.310;17.016;2023-03-01T15:17:53;11.77;;;9.63;;
65071;SDS011;51663;52.310;17.016;2023-03-01T15:21:05;12.60;;;8.03;;
65071;SDS011;51663;52.310;17.016;2023-03-01T15:24:17;9.70;;;6.97;;
65071;SDS011;51663;52.310;17.016;2023-03-01T15:27:24;9.70;;;7.30;;
65071;SDS011;51663;52.310;17.016;2023-03-01T15:30:30;9.90;;;7.10;;
65071;SDS011;51663;52.310;17.016;2023-03-01T15:33:39;13.47;;;7.77;;
65071;SDS011;51663;52.310;17.016;2023-03-01T15:36:49;10.67;;;7.23;;
65071;SDS011;51663;52.310;17.016;2023-03-01T15:39:54;12.50;;;8.20;;
65071;SDS011;51663;52.310;17.016;2023-03-01T15:43:01;18.73;;;9.27;;
65071;SDS011;51663;52.310;17.016;2023-03-01T15:49:40;20.13;;;9.57;;
65071;SDS011;51663;52.310;17.016;2023-03-01T15:52:56;26.07;;;14.63;;
65071;SDS011;51663;52.310;17.016;2023-03-01T15:56:00;90.40;;;55.27;;
65071;SDS011;51663;52.310;17.016;2023-03-01T15:59:02;42.00;;;25.63;;
65071;SDS011;51663;52.310;17.016;2023-03-01T16:02:11;26.67;;;12.80;;
65071;SDS011;51663;52.310;17.016;2023-03-01T16:05:27;27.03;;;16.63;;
65071;SDS011;51663;52.310;17.016;2023-03-01T16:08:32;26.13;;;15.60;;
65071;SDS011;51663;52.310;17.016;2023-03-01T16:11:35;21.60;;;13.73;;
65071;SDS011;51663;52.310;17.016;2023-03-01T16:14:39;21.77;;;12.93;;
65071;SDS011;51663;52.310;17.016;2023-03-01T16:17:41;28.80;;;12.90;;
65071;SDS011;51663;52.310;17.016;2023-03-01T16:20:43;23.93;;;14.10;;
65071;SDS011;51663;52.310;17.016;2023-03-01T16:23:45;31.40;;;13.50;;
65071;SDS011;51663;52.310;17.016;2023-03-01T16:26:48;32.07;;;13.67;;
65071;SDS011;51663;52.310;17.016;2023-03-01T16:29:50;22.20;;;12.23;;
65071;SDS011;51663;52.310;17.016;2023-03-01T16:32:53;24.00;;;13.40;;
65071;SDS011;51663;52.310;17.016;2023-03-01T16:35:55;22.13;;;13.60;;
65071;SDS011;51663;52.310;17.016;2023-03-01T16:38:59;30.17;;;13.90;;
65071;SDS011;51663;52.310;17.016;2023-03-01T16:42:02;28.97;;;14.17;;
65071;SDS011;51663;52.310;17.016;2023-03-01T16:45:04;37.77;;;17.00;;
65071;SDS011;51663;52.310;17.016;2023-03-01T16:48:23;42.97;;;16.03;;
65071;SDS011;51663;52.310;17.016;2023-03-01T16:51:26;36.20;;;17.10;;
65071;SDS011;51663;52.310;17.016;2023-03-01T16:54:30;41.67;;;15.93;;
65071;SDS011;51663;52.310;17.016;2023-03-01T16:57:36;38.73;;;18.20;;
65071;SDS011;51663;52.310;17.016;2023-03-01T17:00:40;31.80;;;18.23;;
65071;SDS011;51663;52.310;17.016;2023-03-01T17:03:43;60.63;;;32.63;;
65071;SDS011;51663;52.310;17.016;2023-03-01T17:06:47;51.93;;;24.80;;
65071;SDS011;51663;52.310;17.016;2023-03-01T17:09:50;46.40;;;23.10;;
65071;SDS011;51663;52.310;17.016;2023-03-01T17:12:52;44.83;;;24.40;;
65071;SDS011;51663;52.310;17.016;2023-03-01T17:15:55;50.57;;;25.83;;
65071;SDS011;51663;52.310;17.016;2023-03-01T17:18:57;125.83;;;52.63;;
65071;SDS011;51663;52.310;17.016;2023-03-01T17:22:00;135.40;;;56.33;;
65071;SDS011;51663;52.310;17.016;2023-03-01T17:25:06;155.00;;;63.87;;
65071;SDS011;51663;52.310;17.016;2023-03-01T17:28:13;148.20;;;62.80;;
65071;SDS011;51663;52.310;17.016;2023-03-01T17:31:20;141.00;;;58.03;;
65071;SDS011;51663;52.310;17.016;2023-03-01T17:34:24;113.93;;;48.33;;
65071;SDS011;51663;52.310;17.016;2023-03-01T17:37:27;90.43;;;40.53;;
65071;SDS011;51663;52.310;17.016;2023-03-01T17:40:29;118.17;;;53.63;;
65071;SDS011;51663;52.310;17.016;2023-03-01T17:43:36;72.83;;;32.70;;
65071;SDS011;51663;52.310;17.016;2023-03-01T17:46:39;74.03;;;33.53;;
65071;SDS011;51663;52.310;17.016;2023-03-01T17:49:41;83.00;;;36.93;;
65071;SDS011;51663;52.310;17.016;2023-03-01T17:52:49;114.30;;;50.90;;
65071;SDS011;51663;52.310;17.016;2023-03-01T17:55:58;196.57;;;88.27;;
65071;SDS011;51663;52.310;17.016;2023-03-01T17:59:03;220.47;;;94.33;;
65071;SDS011;51663;52.310;17.016;2023-03-01T18:02:09;219.30;;;89.40;;
65071;SDS011;51663;52.310;17.016;2023-03-01T18:05:16;192.23;;;81.97;;
65071;SDS011;51663;52.310;17.016;2023-03-01T18:08:18;181.50;;;75.67;;
65071;SDS011;51663;52.310;17.016;2023-03-01T18:11:22;146.50;;;61.33;;
65071;SDS011;51663;52.310;17.016;2023-03-01T18:14:27;103.43;;;44.63;;
65071;SDS011;51663;52.310;17.016;2023-03-01T18:17:34;139.90;;;60.70;;
65071;SDS011;51663;52.310;17.016;2023-03-01T18:20:36;121.77;;;50.73;;
65071;SDS011;51663;52.310;17.016;2023-03-01T18:23:39;114.77;;;51.97;;
65071;SDS011;51663;52.310;17.016;2023-03-01T18:26:41;112.03;;;48.43;;
65071;SDS011;51663;52.310;17.016;2023-03-01T18:29:45;105.97;;;45.53;;
65071;SDS011;51663;52.310;17.016;2023-03-01T18:32:47;88.57;;;40.93;;
65071;SDS011;51663;52.310;17.016;2023-03-01T18:35:57;79.00;;;36.30;;
65071;SDS011;51663;52.310;17.016;2023-03-01T18:39:00;64.53;;;28.40;;
65071;SDS011;51663;52.310;17.016;2023-03-01T18:42:12;77.27;;;35.13;;
65071;SDS011;51663;52.310;17.016;2023-03-01T18:45:16;79.07;;;35.40;;
65071;SDS011;51663;52.310;17.016;2023-03-01T18:48:20;74.27;;;34.00;;
65071;SDS011;51663;52.310;17.016;2023-03-01T18:51:23;73.57;;;31.87;;
65071;SDS011;51663;52.310;17.016;2023-03-01T18:54:31;86.00;;;33.97;;
65071;SDS011;51663;52.310;17.016;2023-03-01T18:57:35;68.97;;;31.40;;
65071;SDS011;51663;52.310;17.016;2023-03-01T19:00:38;87.63;;;34.70;;
65071;SDS011;51663;52.310;17.016;2023-03-01T19:03:42;72.63;;;33.43;;
65071;SDS011;51663;52.310;17.016;2023-03-01T19:06:45;79.47;;;35.07;;
65071;SDS011;51663;52.310;17.016;2023-03-01T19:09:47;84.80;;;37.50;;
65071;SDS011;51663;52.310;17.016;2023-03-01T19:12:53;143.73;;;51.77;;
65071;SDS011;51663;52.310;17.016;2023-03-01T19:16:02;104.97;;;41.20;;
65071;SDS011;51663;52.310;17.016;2023-03-01T19:19:08;115.60;;;45.70;;
65071;SDS011;51663;52.310;17.016;2023-03-01T19:22:12;130.57;;;54.47;;
65071;SDS011;51663;52.310;17.016;2023-03-01T19:25:19;140.90;;;59.03;;
65071;SDS011;51663;52.310;17.016;2023-03-01T19:28:23;170.33;;;72.37;;
65071;SDS011;51663;52.310;17.016;2023-03-01T19:31:26;149.10;;;63.20;;
65071;SDS011;51663;52.310;17.016;2023-03-01T19:34:30;160.87;;;67.13;;
65071;SDS011;51663;52.310;17.016;2023-03-01T19:37:37;168.57;;;68.57;;
65071;SDS011;51663;52.310;17.016;2023-03-01T19:40:42;154.77;;;64.80;;